Terminal Aerodrome Forecast
Issued by NWS Cleveland, OH

Home | Current Version | Previous Version | Text Only | Print | Product List | Glossary On
Versions: 1 2 3 4 5 6 7 8 9 10 11 12 13 14 15 16 17
000
FTUS41 KCLE 300500 RRA
TAFYNG
TAF
KYNG 300543Z 3006/0106 VRB03KT P6SM SKC
     FM301000 VRB03KT 4SM BR SCT080
     FM301200 26003KT P6SM BKN080 OVC250
     FM301400 29006KT P6SM SCT012
      TEMPO 3014/3018 4SM -RA BR OVC012
     FM301800 32006KT P6SM BKN012 OVC025
     FM010000 35003KT 3SM BR OVC003=

USA.gov is the U.S. government's official web portal to all federal, state and local government web resources and services.